sensor_id;sensor_type;location;lat;lon;timestamp;P1;durP1;ratioP1;P2;durP2;ratioP2
58756;SDS011;44527;47.460;19.016;2022-08-30T00:00:36;6.90;;;4.93;;
58756;SDS011;44527;47.460;19.016;2022-08-30T00:03:58;8.82;;;4.65;;
58756;SDS011;44527;47.460;19.016;2022-08-30T00:07:01;5.62;;;4.20;;
58756;SDS011;44527;47.460;19.016;2022-08-30T00:10:05;9.80;;;4.35;;
58756;SDS011;44527;47.460;19.016;2022-08-30T00:13:08;9.43;;;4.25;;
58756;SDS011;44527;47.460;19.016;2022-08-30T00:16:13;9.15;;;4.68;;
58756;SDS011;44527;47.460;19.016;2022-08-30T00:19:15;7.25;;;4.65;;
58756;SDS011;44527;47.460;19.016;2022-08-30T00:22:18;8.95;;;4.32;;
58756;SDS011;44527;47.460;19.016;2022-08-30T00:25:20;5.82;;;4.30;;
58756;SDS011;44527;47.460;19.016;2022-08-30T00:28:23;6.62;;;4.68;;
58756;SDS011;44527;47.460;19.016;2022-08-30T00:31:27;12.65;;;4.60;;
58756;SDS011;44527;47.460;19.016;2022-08-30T00:34:29;8.00;;;3.95;;
58756;SDS011;44527;47.460;19.016;2022-08-30T00:37:32;7.10;;;4.50;;
58756;SDS011;44527;47.460;19.016;2022-08-30T00:40:35;8.15;;;4.90;;
58756;SDS011;44527;47.460;19.016;2022-08-30T00:43:38;6.03;;;4.45;;
58756;SDS011;44527;47.460;19.016;2022-08-30T00:46:41;7.82;;;4.30;;
58756;SDS011;44527;47.460;19.016;2022-08-30T00:49:47;6.22;;;4.12;;
58756;SDS011;44527;47.460;19.016;2022-08-30T00:52:55;7.87;;;4.30;;
58756;SDS011;44527;47.460;19.016;2022-08-30T00:56:00;8.63;;;4.47;;
58756;SDS011;44527;47.460;19.016;2022-08-30T00:59:04;9.05;;;4.78;;
58756;SDS011;44527;47.460;19.016;2022-08-30T01:02:08;6.80;;;4.55;;
58756;SDS011;44527;47.460;19.016;2022-08-30T01:05:11;8.88;;;4.45;;
58756;SDS011;44527;47.460;19.016;2022-08-30T01:08:17;9.35;;;4.53;;
58756;SDS011;44527;47.460;19.016;2022-08-30T01:11:21;6.90;;;4.57;;
58756;SDS011;44527;47.460;19.016;2022-08-30T01:14:25;6.47;;;3.95;;
58756;SDS011;44527;47.460;19.016;2022-08-30T01:17:28;5.65;;;4.53;;
58756;SDS011;44527;47.460;19.016;2022-08-30T01:20:37;8.02;;;4.50;;
58756;SDS011;44527;47.460;19.016;2022-08-30T01:24:02;6.68;;;4.35;;
58756;SDS011;44527;47.460;19.016;2022-08-30T01:27:06;6.25;;;4.50;;
58756;SDS011;44527;47.460;19.016;2022-08-30T01:30:08;7.25;;;4.65;;
58756;SDS011;44527;47.460;19.016;2022-08-30T01:33:11;7.00;;;5.32;;
58756;SDS011;44527;47.460;19.016;2022-08-30T01:36:14;9.20;;;5.05;;
58756;SDS011;44527;47.460;19.016;2022-08-30T01:39:18;7.97;;;4.97;;
58756;SDS011;44527;47.460;19.016;2022-08-30T01:42:21;10.10;;;5.05;;
58756;SDS011;44527;47.460;19.016;2022-08-30T01:45:24;8.82;;;4.72;;
58756;SDS011;44527;47.460;19.016;2022-08-30T01:48:26;11.38;;;4.70;;
58756;SDS011;44527;47.460;19.016;2022-08-30T01:51:32;7.60;;;5.30;;
58756;SDS011;44527;47.460;19.016;2022-08-30T01:54:35;8.90;;;4.75;;
58756;SDS011;44527;47.460;19.016;2022-08-30T01:57:40;5.78;;;4.57;;
58756;SDS011;44527;47.460;19.016;2022-08-30T02:00:43;7.65;;;4.45;;
58756;SDS011;44527;47.460;19.016;2022-08-30T02:03:46;8.40;;;5.00;;
58756;SDS011;44527;47.460;19.016;2022-08-30T02:06:49;6.70;;;4.87;;
58756;SDS011;44527;47.460;19.016;2022-08-30T02:09:52;9.07;;;4.93;;
58756;SDS011;44527;47.460;19.016;2022-08-30T02:12:55;6.65;;;4.97;;
58756;SDS011;44527;47.460;19.016;2022-08-30T02:15:57;11.80;;;5.70;;
58756;SDS011;44527;47.460;19.016;2022-08-30T02:19:02;12.93;;;5.30;;
58756;SDS011;44527;47.460;19.016;2022-08-30T02:22:04;8.45;;;5.40;;
58756;SDS011;44527;47.460;19.016;2022-08-30T02:25:08;7.65;;;4.68;;
58756;SDS011;44527;47.460;19.016;2022-08-30T02:28:22;8.20;;;4.90;;
58756;SDS011;44527;47.460;19.016;2022-08-30T02:31:25;7.68;;;5.20;;
58756;SDS011;44527;47.460;19.016;2022-08-30T02:34:27;9.48;;;4.87;;
58756;SDS011;44527;47.460;19.016;2022-08-30T02:37:30;11.12;;;5.22;;
58756;SDS011;44527;47.460;19.016;2022-08-30T02:40:32;9.13;;;5.30;;
58756;SDS011;44527;47.460;19.016;2022-08-30T02:43:38;9.10;;;5.40;;
58756;SDS011;44527;47.460;19.016;2022-08-30T02:46:40;10.85;;;5.40;;
58756;SDS011;44527;47.460;19.016;2022-08-30T02:49:43;8.50;;;5.53;;
58756;SDS011;44527;47.460;19.016;2022-08-30T02:52:45;12.90;;;5.50;;
58756;SDS011;44527;47.460;19.016;2022-08-30T02:55:49;9.18;;;5.45;;
58756;SDS011;44527;47.460;19.016;2022-08-30T02:58:51;11.10;;;5.57;;
58756;SDS011;44527;47.460;19.016;2022-08-30T03:01:54;9.65;;;5.35;;
58756;SDS011;44527;47.460;19.016;2022-08-30T03:04:56;6.22;;;4.80;;
58756;SDS011;44527;47.460;19.016;2022-08-30T03:07:59;10.35;;;5.25;;
58756;SDS011;44527;47.460;19.016;2022-08-30T03:11:03;8.30;;;5.45;;
58756;SDS011;44527;47.460;19.016;2022-08-30T03:14:06;9.93;;;5.78;;
58756;SDS011;44527;47.460;19.016;2022-08-30T03:17:08;7.25;;;4.78;;
58756;SDS011;44527;47.460;19.016;2022-08-30T03:20:16;8.40;;;5.10;;
58756;SDS011;44527;47.460;19.016;2022-08-30T03:23:19;12.20;;;5.72;;
58756;SDS011;44527;47.460;19.016;2022-08-30T03:26:23;11.15;;;6.32;;
58756;SDS011;44527;47.460;19.016;2022-08-30T03:29:25;8.00;;;5.65;;
58756;SDS011;44527;47.460;19.016;2022-08-30T03:32:27;14.85;;;5.32;;
58756;SDS011;44527;47.460;19.016;2022-08-30T03:35:31;11.85;;;5.55;;
58756;SDS011;44527;47.460;19.016;2022-08-30T03:38:34;12.37;;;5.60;;
58756;SDS011;44527;47.460;19.016;2022-08-30T03:41:36;10.00;;;5.50;;
58756;SDS011;44527;47.460;19.016;2022-08-30T03:44:40;9.07;;;5.65;;
58756;SDS011;44527;47.460;19.016;2022-08-30T03:47:42;9.75;;;5.43;;
58756;SDS011;44527;47.460;19.016;2022-08-30T03:50:45;12.57;;;5.62;;
58756;SDS011;44527;47.460;19.016;2022-08-30T03:53:48;7.60;;;4.97;;
58756;SDS011;44527;47.460;19.016;2022-08-30T03:56:50;9.30;;;6.00;;
58756;SDS011;44527;47.460;19.016;2022-08-30T03:59:53;8.20;;;5.12;;
58756;SDS011;44527;47.460;19.016;2022-08-30T04:02:55;7.45;;;5.30;;
58756;SDS011;44527;47.460;19.016;2022-08-30T04:05:58;8.98;;;6.12;;
58756;SDS011;44527;47.460;19.016;2022-08-30T04:09:01;12.43;;;5.85;;
58756;SDS011;44527;47.460;19.016;2022-08-30T04:12:06;14.25;;;7.55;;
58756;SDS011;44527;47.460;19.016;2022-08-30T04:15:08;9.93;;;6.65;;
58756;SDS011;44527;47.460;19.016;2022-08-30T04:18:12;13.02;;;6.18;;
58756;SDS011;44527;47.460;19.016;2022-08-30T04:21:14;10.00;;;6.57;;
58756;SDS011;44527;47.460;19.016;2022-08-30T04:24:18;11.65;;;7.15;;
58756;SDS011;44527;47.460;19.016;2022-08-30T04:27:20;8.02;;;5.90;;
58756;SDS011;44527;47.460;19.016;2022-08-30T04:30:22;10.88;;;5.55;;
58756;SDS011;44527;47.460;19.016;2022-08-30T04:33:26;15.82;;;6.43;;
58756;SDS011;44527;47.460;19.016;2022-08-30T04:36:29;9.52;;;5.75;;
58756;SDS011;44527;47.460;19.016;2022-08-30T04:39:31;11.77;;;5.68;;
58756;SDS011;44527;47.460;19.016;2022-08-30T04:42:34;7.65;;;5.40;;
58756;SDS011;44527;47.460;19.016;2022-08-30T04:45:39;9.00;;;5.57;;
58756;SDS011;44527;47.460;19.016;2022-08-30T04:48:42;9.43;;;5.50;;
58756;SDS011;44527;47.460;19.016;2022-08-30T04:51:45;12.63;;;5.80;;
58756;SDS011;44527;47.460;19.016;2022-08-30T04:54:52;7.70;;;5.03;;
58756;SDS011;44527;47.460;19.016;2022-08-30T04:57:58;8.48;;;5.30;;
58756;SDS011;44527;47.460;19.016;2022-08-30T05:01:02;7.93;;;5.55;;
58756;SDS011;44527;47.460;19.016;2022-08-30T05:04:05;13.52;;;5.60;;
58756;SDS011;44527;47.460;19.016;2022-08-30T05:07:08;9.70;;;5.62;;
58756;SDS011;44527;47.460;19.016;2022-08-30T05:10:10;14.32;;;5.05;;
58756;SDS011;44527;47.460;19.016;2022-08-30T05:13:13;12.18;;;5.12;;
58756;SDS011;44527;47.460;19.016;2022-08-30T05:16:17;18.40;;;5.57;;
58756;SDS011;44527;47.460;19.016;2022-08-30T05:19:20;14.70;;;4.75;;
58756;SDS011;44527;47.460;19.016;2022-08-30T05:22:24;14.45;;;5.43;;
58756;SDS011;44527;47.460;19.016;2022-08-30T05:25:31;16.15;;;6.03;;
58756;SDS011;44527;47.460;19.016;2022-08-30T05:28:37;14.18;;;6.00;;
58756;SDS011;44527;47.460;19.016;2022-08-30T05:31:39;10.95;;;5.30;;
58756;SDS011;44527;47.460;19.016;2022-08-30T05:34:44;14.30;;;4.90;;
58756;SDS011;44527;47.460;19.016;2022-08-30T05:37:47;9.88;;;5.32;;
58756;SDS011;44527;47.460;19.016;2022-08-30T05:40:49;11.85;;;4.80;;
58756;SDS011;44527;47.460;19.016;2022-08-30T05:43:53;19.12;;;6.03;;
58756;SDS011;44527;47.460;19.016;2022-08-30T05:46:56;18.02;;;5.75;;
58756;SDS011;44527;47.460;19.016;2022-08-30T05:49:59;28.25;;;7.90;;
58756;SDS011;44527;47.460;19.016;2022-08-30T05:53:01;12.70;;;5.45;;
58756;SDS011;44527;47.460;19.016;2022-08-30T05:56:04;9.55;;;4.65;;
58756;SDS011;44527;47.460;19.016;2022-08-30T05:59:10;15.93;;;4.80;;
58756;SDS011;44527;47.460;19.016;2022-08-30T06:02:14;11.90;;;4.93;;
58756;SDS011;44527;47.460;19.016;2022-08-30T06:05:16;11.50;;;4.75;;
58756;SDS011;44527;47.460;19.016;2022-08-30T06:08:18;13.48;;;5.40;;
58756;SDS011;44527;47.460;19.016;2022-08-30T06:11:22;12.18;;;4.75;;
58756;SDS011;44527;47.460;19.016;2022-08-30T06:14:27;7.35;;;3.95;;
58756;SDS011;44527;47.460;19.016;2022-08-30T06:17:29;9.45;;;4.35;;
58756;SDS011;44527;47.460;19.016;2022-08-30T06:20:32;11.52;;;4.45;;
58756;SDS011;44527;47.460;19.016;2022-08-30T06:23:34;8.85;;;3.95;;
58756;SDS011;44527;47.460;19.016;2022-08-30T06:26:38;10.57;;;4.22;;
58756;SDS011;44527;47.460;19.016;2022-08-30T06:29:42;7.22;;;4.18;;
58756;SDS011;44527;47.460;19.016;2022-08-30T06:32:44;10.40;;;3.97;;
58756;SDS011;44527;47.460;19.016;2022-08-30T06:35:47;9.95;;;4.43;;
58756;SDS011;44527;47.460;19.016;2022-08-30T06:39:00;13.93;;;4.20;;
58756;SDS011;44527;47.460;19.016;2022-08-30T06:42:03;11.82;;;4.35;;
58756;SDS011;44527;47.460;19.016;2022-08-30T06:45:07;8.20;;;4.32;;
58756;SDS011;44527;47.460;19.016;2022-08-30T06:48:12;8.18;;;4.37;;
58756;SDS011;44527;47.460;19.016;2022-08-30T06:51:25;13.05;;;4.53;;
58756;SDS011;44527;47.460;19.016;2022-08-30T06:54:30;14.77;;;4.15;;
58756;SDS011;44527;47.460;19.016;2022-08-30T06:57:35;9.07;;;4.07;;
58756;SDS011;44527;47.460;19.016;2022-08-30T07:00:37;8.15;;;4.20;;
58756;SDS011;44527;47.460;19.016;2022-08-30T07:03:42;6.80;;;3.65;;
58756;SDS011;44527;47.460;19.016;2022-08-30T07:06:45;5.82;;;3.35;;
58756;SDS011;44527;47.460;19.016;2022-08-30T07:09:47;5.50;;;3.22;;
58756;SDS011;44527;47.460;19.016;2022-08-30T07:12:54;6.23;;;3.20;;
58756;SDS011;44527;47.460;19.016;2022-08-30T07:15:56;7.68;;;3.75;;
58756;SDS011;44527;47.460;19.016;2022-08-30T07:18:59;5.20;;;3.03;;
58756;SDS011;44527;47.460;19.016;2022-08-30T07:22:03;7.30;;;3.50;;
58756;SDS011;44527;47.460;19.016;2022-08-30T07:25:08;6.40;;;3.42;;
58756;SDS011;44527;47.460;19.016;2022-08-30T07:28:11;7.90;;;3.00;;
58756;SDS011;44527;47.460;19.016;2022-08-30T07:31:17;8.63;;;3.20;;
58756;SDS011;44527;47.460;19.016;2022-08-30T07:34:20;7.72;;;2.92;;
58756;SDS011;44527;47.460;19.016;2022-08-30T07:37:26;6.40;;;2.78;;
58756;SDS011;44527;47.460;19.016;2022-08-30T07:40:28;7.70;;;2.83;;
58756;SDS011;44527;47.460;19.016;2022-08-30T07:43:32;8.52;;;2.90;;
58756;SDS011;44527;47.460;19.016;2022-08-30T07:46:38;7.53;;;3.22;;
58756;SDS011;44527;47.460;19.016;2022-08-30T07:49:43;6.18;;;3.10;;
58756;SDS011;44527;47.460;19.016;2022-08-30T07:52:45;5.97;;;3.28;;
58756;SDS011;44527;47.460;19.016;2022-08-30T07:55:48;8.38;;;3.08;;
58756;SDS011;44527;47.460;19.016;2022-08-30T07:58:50;10.32;;;3.80;;
58756;SDS011;44527;47.460;19.016;2022-08-30T08:01:53;7.75;;;2.97;;
58756;SDS011;44527;47.460;19.016;2022-08-30T08:04:56;5.15;;;3.22;;
58756;SDS011;44527;47.460;19.016;2022-08-30T08:07:58;8.30;;;3.53;;
58756;SDS011;44527;47.460;19.016;2022-08-30T08:14:17;7.75;;;3.40;;
58756;SDS011;44527;47.460;19.016;2022-08-30T08:17:20;7.93;;;3.70;;
58756;SDS011;44527;47.460;19.016;2022-08-30T08:20:22;9.60;;;3.72;;
58756;SDS011;44527;47.460;19.016;2022-08-30T08:23:26;10.20;;;3.25;;
58756;SDS011;44527;47.460;19.016;2022-08-30T08:26:28;7.82;;;3.50;;
58756;SDS011;44527;47.460;19.016;2022-08-30T08:29:31;7.03;;;4.20;;
58756;SDS011;44527;47.460;19.016;2022-08-30T08:32:33;12.35;;;3.90;;
58756;SDS011;44527;47.460;19.016;2022-08-30T08:35:36;10.15;;;4.10;;
58756;SDS011;44527;47.460;19.016;2022-08-30T08:38:38;9.13;;;3.50;;
58756;SDS011;44527;47.460;19.016;2022-08-30T08:45:04;6.45;;;3.40;;
58756;SDS011;44527;47.460;19.016;2022-08-30T08:48:21;6.90;;;3.67;;
58756;SDS011;44527;47.460;19.016;2022-08-30T08:51:52;9.63;;;3.80;;
58756;SDS011;44527;47.460;19.016;2022-08-30T08:55:16;12.90;;;3.87;;
58756;SDS011;44527;47.460;19.016;2022-08-30T08:58:22;10.23;;;3.83;;
58756;SDS011;44527;47.460;19.016;2022-08-30T09:01:28;8.50;;;3.65;;
58756;SDS011;44527;47.460;19.016;2022-08-30T09:04:32;10.02;;;3.45;;
58756;SDS011;44527;47.460;19.016;2022-08-30T09:07:39;13.45;;;4.00;;
58756;SDS011;44527;47.460;19.016;2022-08-30T09:10:51;9.55;;;4.55;;
58756;SDS011;44527;47.460;19.016;2022-08-30T09:13:59;10.35;;;3.40;;
58756;SDS011;44527;47.460;19.016;2022-08-30T09:17:07;7.53;;;3.55;;
58756;SDS011;44527;47.460;19.016;2022-08-30T09:20:11;5.15;;;3.45;;
58756;SDS011;44527;47.460;19.016;2022-08-30T09:26:33;9.43;;;3.70;;
58756;SDS011;44527;47.460;19.016;2022-08-30T09:29:37;10.10;;;3.67;;
58756;SDS011;44527;47.460;19.016;2022-08-30T09:35:56;7.68;;;3.53;;
58756;SDS011;44527;47.460;19.016;2022-08-30T09:39:29;8.10;;;3.78;;
58756;SDS011;44527;47.460;19.016;2022-08-30T09:42:35;10.25;;;3.78;;
58756;SDS011;44527;47.460;19.016;2022-08-30T09:45:40;5.28;;;3.40;;
58756;SDS011;44527;47.460;19.016;2022-08-30T09:48:44;6.72;;;3.62;;
58756;SDS011;44527;47.460;19.016;2022-08-30T09:51:49;12.30;;;4.03;;
58756;SDS011;44527;47.460;19.016;2022-08-30T10:05:44;11.35;;;3.62;;
58756;SDS011;44527;47.460;19.016;2022-08-30T10:09:01;6.87;;;3.80;;
58756;SDS011;44527;47.460;19.016;2022-08-30T10:15:42;9.13;;;3.42;;
58756;SDS011;44527;47.460;19.016;2022-08-30T10:22:11;8.70;;;3.75;;
58756;SDS011;44527;47.460;19.016;2022-08-30T10:25:37;11.15;;;3.67;;
58756;SDS011;44527;47.460;19.016;2022-08-30T10:28:45;6.75;;;3.60;;
58756;SDS011;44527;47.460;19.016;2022-08-30T10:32:40;6.43;;;3.50;;
58756;SDS011;44527;47.460;19.016;2022-08-30T10:38:33;8.75;;;3.65;;
58756;SDS011;44527;47.460;19.016;2022-08-30T10:41:42;9.57;;;3.85;;
58756;SDS011;44527;47.460;19.016;2022-08-30T10:45:06;5.55;;;3.75;;
58756;SDS011;44527;47.460;19.016;2022-08-30T10:51:36;8.23;;;4.07;;
58756;SDS011;44527;47.460;19.016;2022-08-30T10:58:13;11.55;;;3.92;;
58756;SDS011;44527;47.460;19.016;2022-08-30T11:14:51;5.28;;;3.75;;
58756;SDS011;44527;47.460;19.016;2022-08-30T11:17:56;5.10;;;3.70;;
58756;SDS011;44527;47.460;19.016;2022-08-30T11:27:58;10.40;;;3.67;;
58756;SDS011;44527;47.460;19.016;2022-08-30T11:31:07;8.80;;;4.00;;
58756;SDS011;44527;47.460;19.016;2022-08-30T11:34:52;6.93;;;4.12;;
58756;SDS011;44527;47.460;19.016;2022-08-30T11:37:47;8.15;;;3.87;;
58756;SDS011;44527;47.460;19.016;2022-08-30T11:41:08;5.90;;;3.40;;
58756;SDS011;44527;47.460;19.016;2022-08-30T11:47:44;6.72;;;3.53;;
58756;SDS011;44527;47.460;19.016;2022-08-30T11:51:05;7.93;;;3.35;;
58756;SDS011;44527;47.460;19.016;2022-08-30T11:54:31;5.62;;;3.62;;
58756;SDS011;44527;47.460;19.016;2022-08-30T12:01:12;6.53;;;4.20;;
58756;SDS011;44527;47.460;19.016;2022-08-30T12:04:48;8.52;;;3.80;;
58756;SDS011;44527;47.460;19.016;2022-08-30T12:07:56;6.07;;;3.62;;
58756;SDS011;44527;47.460;19.016;2022-08-30T12:11:03;5.45;;;3.58;;
58756;SDS011;44527;47.460;19.016;2022-08-30T12:14:31;7.55;;;3.95;;
58756;SDS011;44527;47.460;19.016;2022-08-30T12:21:24;8.35;;;4.03;;
58756;SDS011;44527;47.460;19.016;2022-08-30T12:24:34;6.45;;;3.55;;
58756;SDS011;44527;47.460;19.016;2022-08-30T12:27:42;4.82;;;3.37;;
58756;SDS011;44527;47.460;19.016;2022-08-30T12:31:05;4.93;;;3.42;;
58756;SDS011;44527;47.460;19.016;2022-08-30T12:34:24;5.10;;;3.15;;
58756;SDS011;44527;47.460;19.016;2022-08-30T12:37:57;9.80;;;4.03;;
58756;SDS011;44527;47.460;19.016;2022-08-30T12:41:03;7.18;;;3.28;;
58756;SDS011;44527;47.460;19.016;2022-08-30T12:44:11;6.80;;;3.85;;
58756;SDS011;44527;47.460;19.016;2022-08-30T12:47:43;6.53;;;3.33;;
58756;SDS011;44527;47.460;19.016;2022-08-30T12:50:48;7.95;;;3.47;;
58756;SDS011;44527;47.460;19.016;2022-08-30T12:54:01;7.97;;;3.70;;
58756;SDS011;44527;47.460;19.016;2022-08-30T12:57:14;4.75;;;3.42;;
58756;SDS011;44527;47.460;19.016;2022-08-30T13:00:39;5.28;;;3.22;;
58756;SDS011;44527;47.460;19.016;2022-08-30T13:07:34;11.43;;;3.70;;
58756;SDS011;44527;47.460;19.016;2022-08-30T13:10:46;3.92;;;3.12;;
58756;SDS011;44527;47.460;19.016;2022-08-30T13:13:52;6.05;;;3.22;;
58756;SDS011;44527;47.460;19.016;2022-08-30T13:20:25;6.10;;;3.45;;
58756;SDS011;44527;47.460;19.016;2022-08-30T13:23:27;7.72;;;3.40;;
58756;SDS011;44527;47.460;19.016;2022-08-30T13:26:34;4.57;;;3.30;;
58756;SDS011;44527;47.460;19.016;2022-08-30T13:29:41;5.82;;;3.45;;
58756;SDS011;44527;47.460;19.016;2022-08-30T13:32:44;10.18;;;3.50;;
58756;SDS011;44527;47.460;19.016;2022-08-30T13:35:46;8.88;;;3.92;;
58756;SDS011;44527;47.460;19.016;2022-08-30T13:38:49;4.15;;;3.00;;
58756;SDS011;44527;47.460;19.016;2022-08-30T13:41:52;4.20;;;3.50;;
58756;SDS011;44527;47.460;19.016;2022-08-30T13:44:57;6.87;;;3.58;;
58756;SDS011;44527;47.460;19.016;2022-08-30T13:47:59;5.30;;;3.42;;
58756;SDS011;44527;47.460;19.016;2022-08-30T13:51:02;5.03;;;2.92;;
58756;SDS011;44527;47.460;19.016;2022-08-30T13:54:05;6.82;;;3.60;;
58756;SDS011;44527;47.460;19.016;2022-08-30T13:57:08;6.55;;;3.15;;
58756;SDS011;44527;47.460;19.016;2022-08-30T14:00:14;7.93;;;3.37;;
58756;SDS011;44527;47.460;19.016;2022-08-30T14:03:20;5.85;;;3.33;;
58756;SDS011;44527;47.460;19.016;2022-08-30T14:06:23;6.47;;;3.62;;
58756;SDS011;44527;47.460;19.016;2022-08-30T14:09:35;6.18;;;3.50;;
58756;SDS011;44527;47.460;19.016;2022-08-30T14:12:37;4.00;;;2.78;;
58756;SDS011;44527;47.460;19.016;2022-08-30T14:16:00;10.13;;;3.70;;
58756;SDS011;44527;47.460;19.016;2022-08-30T14:19:27;9.68;;;3.58;;
58756;SDS011;44527;47.460;19.016;2022-08-30T14:22:29;8.98;;;3.37;;
58756;SDS011;44527;47.460;19.016;2022-08-30T14:25:31;5.03;;;3.08;;
58756;SDS011;44527;47.460;19.016;2022-08-30T14:28:35;8.63;;;3.67;;
58756;SDS011;44527;47.460;19.016;2022-08-30T14:31:38;11.75;;;4.07;;
58756;SDS011;44527;47.460;19.016;2022-08-30T14:34:41;5.50;;;3.42;;
58756;SDS011;44527;47.460;19.016;2022-08-30T14:37:44;4.72;;;3.42;;
58756;SDS011;44527;47.460;19.016;2022-08-30T14:40:46;9.02;;;3.72;;
58756;SDS011;44527;47.460;19.016;2022-08-30T14:43:49;8.73;;;3.35;;
58756;SDS011;44527;47.460;19.016;2022-08-30T14:46:52;7.18;;;3.60;;
58756;SDS011;44527;47.460;19.016;2022-08-30T14:49:55;10.07;;;4.90;;
58756;SDS011;44527;47.460;19.016;2022-08-30T14:53:00;7.82;;;3.87;;
58756;SDS011;44527;47.460;19.016;2022-08-30T14:56:06;9.32;;;3.30;;
58756;SDS011;44527;47.460;19.016;2022-08-30T14:59:10;8.57;;;3.45;;
58756;SDS011;44527;47.460;19.016;2022-08-30T15:02:14;7.30;;;3.65;;
58756;SDS011;44527;47.460;19.016;2022-08-30T15:05:16;5.95;;;3.70;;
58756;SDS011;44527;47.460;19.016;2022-08-30T15:08:20;4.95;;;3.55;;
58756;SDS011;44527;47.460;19.016;2022-08-30T15:11:23;5.15;;;3.42;;
58756;SDS011;44527;47.460;19.016;2022-08-30T15:14:31;8.48;;;3.60;;
58756;SDS011;44527;47.460;19.016;2022-08-30T15:17:33;6.12;;;3.65;;
58756;SDS011;44527;47.460;19.016;2022-08-30T15:20:35;5.82;;;3.60;;
58756;SDS011;44527;47.460;19.016;2022-08-30T15:23:38;10.57;;;4.28;;
58756;SDS011;44527;47.460;19.016;2022-08-30T15:26:41;11.95;;;3.87;;
58756;SDS011;44527;47.460;19.016;2022-08-30T15:29:45;5.57;;;3.45;;
58756;SDS011;44527;47.460;19.016;2022-08-30T15:32:48;11.57;;;4.07;;
58756;SDS011;44527;47.460;19.016;2022-08-30T15:35:50;5.50;;;3.60;;
58756;SDS011;44527;47.460;19.016;2022-08-30T15:38:53;6.62;;;3.80;;
58756;SDS011;44527;47.460;19.016;2022-08-30T15:41:57;6.57;;;3.87;;
58756;SDS011;44527;47.460;19.016;2022-08-30T15:45:02;4.12;;;3.10;;
58756;SDS011;44527;47.460;19.016;2022-08-30T15:48:08;7.28;;;3.67;;
58756;SDS011;44527;47.460;19.016;2022-08-30T15:51:10;5.15;;;3.55;;
58756;SDS011;44527;47.460;19.016;2022-08-30T15:54:15;6.28;;;3.15;;
58756;SDS011;44527;47.460;19.016;2022-08-30T15:57:21;6.70;;;3.65;;
58756;SDS011;44527;47.460;19.016;2022-08-30T16:00:24;8.35;;;3.20;;
58756;SDS011;44527;47.460;19.016;2022-08-30T16:03:27;4.25;;;3.35;;
58756;SDS011;44527;47.460;19.016;2022-08-30T16:06:31;6.72;;;3.12;;
58756;SDS011;44527;47.460;19.016;2022-08-30T16:09:38;3.83;;;2.97;;
58756;SDS011;44527;47.460;19.016;2022-08-30T16:12:42;4.35;;;3.20;;
58756;SDS011;44527;47.460;19.016;2022-08-30T16:15:44;7.12;;;3.08;;
58756;SDS011;44527;47.460;19.016;2022-08-30T16:18:47;5.43;;;3.37;;
58756;SDS011;44527;47.460;19.016;2022-08-30T16:21:56;5.47;;;3.37;;
58756;SDS011;44527;47.460;19.016;2022-08-30T16:24:59;10.00;;;3.17;;
58756;SDS011;44527;47.460;19.016;2022-08-30T16:28:02;7.22;;;3.33;;
58756;SDS011;44527;47.460;19.016;2022-08-30T16:31:05;5.07;;;3.10;;
58756;SDS011;44527;47.460;19.016;2022-08-30T16:34:09;9.95;;;3.40;;
58756;SDS011;44527;47.460;19.016;2022-08-30T16:37:12;4.25;;;3.00;;
58756;SDS011;44527;47.460;19.016;2022-08-30T16:40:14;4.05;;;3.25;;
58756;SDS011;44527;47.460;19.016;2022-08-30T16:43:18;4.05;;;2.70;;
58756;SDS011;44527;47.460;19.016;2022-08-30T16:46:23;5.47;;;3.33;;
58756;SDS011;44527;47.460;19.016;2022-08-30T16:49:28;5.22;;;3.40;;
58756;SDS011;44527;47.460;19.016;2022-08-30T16:52:31;8.10;;;3.22;;
58756;SDS011;44527;47.460;19.016;2022-08-30T16:55:35;6.78;;;3.15;;
58756;SDS011;44527;47.460;19.016;2022-08-30T16:58:39;4.28;;;3.05;;
58756;SDS011;44527;47.460;19.016;2022-08-30T17:01:43;3.80;;;2.75;;
58756;SDS011;44527;47.460;19.016;2022-08-30T17:04:46;4.55;;;2.85;;
58756;SDS011;44527;47.460;19.016;2022-08-30T17:10:56;9.90;;;2.83;;
58756;SDS011;44527;47.460;19.016;2022-08-30T17:13:59;5.68;;;2.90;;
58756;SDS011;44527;47.460;19.016;2022-08-30T17:17:02;4.87;;;2.90;;
58756;SDS011;44527;47.460;19.016;2022-08-30T17:20:05;3.85;;;2.78;;
58756;SDS011;44527;47.460;19.016;2022-08-30T17:23:09;5.05;;;2.67;;
58756;SDS011;44527;47.460;19.016;2022-08-30T17:26:12;6.50;;;2.80;;
58756;SDS011;44527;47.460;19.016;2022-08-30T17:29:14;5.50;;;2.42;;
58756;SDS011;44527;47.460;19.016;2022-08-30T17:32:16;6.35;;;2.53;;
58756;SDS011;44527;47.460;19.016;2022-08-30T17:35:19;7.82;;;3.05;;
58756;SDS011;44527;47.460;19.016;2022-08-30T17:38:22;4.47;;;2.53;;
58756;SDS011;44527;47.460;19.016;2022-08-30T17:41:24;3.90;;;2.70;;
58756;SDS011;44527;47.460;19.016;2022-08-30T17:44:30;5.03;;;2.72;;
58756;SDS011;44527;47.460;19.016;2022-08-30T17:47:34;4.00;;;2.40;;
58756;SDS011;44527;47.460;19.016;2022-08-30T17:50:37;6.53;;;2.70;;
58756;SDS011;44527;47.460;19.016;2022-08-30T17:53:40;5.95;;;2.42;;
58756;SDS011;44527;47.460;19.016;2022-08-30T17:56:42;6.60;;;3.12;;
58756;SDS011;44527;47.460;19.016;2022-08-30T17:59:45;4.72;;;2.80;;
58756;SDS011;44527;47.460;19.016;2022-08-30T18:02:48;7.12;;;2.78;;
58756;SDS011;44527;47.460;19.016;2022-08-30T18:05:51;6.28;;;2.95;;
58756;SDS011;44527;47.460;19.016;2022-08-30T18:08:53;3.95;;;2.33;;
58756;SDS011;44527;47.460;19.016;2022-08-30T18:11:56;5.10;;;2.65;;
58756;SDS011;44527;47.460;19.016;2022-08-30T18:14:58;6.05;;;2.60;;
58756;SDS011;44527;47.460;19.016;2022-08-30T18:18:01;4.85;;;2.87;;
58756;SDS011;44527;47.460;19.016;2022-08-30T18:21:10;6.65;;;2.30;;
58756;SDS011;44527;47.460;19.016;2022-08-30T18:24:15;7.37;;;2.67;;
58756;SDS011;44527;47.460;19.016;2022-08-30T18:27:17;6.32;;;2.37;;
58756;SDS011;44527;47.460;19.016;2022-08-30T18:30:20;3.72;;;2.87;;
58756;SDS011;44527;47.460;19.016;2022-08-30T18:33:23;5.10;;;2.55;;
58756;SDS011;44527;47.460;19.016;2022-08-30T18:36:26;4.72;;;2.28;;
58756;SDS011;44527;47.460;19.016;2022-08-30T18:39:29;5.05;;;2.45;;
58756;SDS011;44527;47.460;19.016;2022-08-30T18:42:36;4.37;;;2.60;;
58756;SDS011;44527;47.460;19.016;2022-08-30T18:45:42;5.25;;;2.60;;
58756;SDS011;44527;47.460;19.016;2022-08-30T18:48:46;6.05;;;2.72;;
58756;SDS011;44527;47.460;19.016;2022-08-30T18:51:49;5.55;;;2.85;;
58756;SDS011;44527;47.460;19.016;2022-08-30T18:54:52;8.80;;;2.70;;
58756;SDS011;44527;47.460;19.016;2022-08-30T18:57:59;8.77;;;2.72;;
58756;SDS011;44527;47.460;19.016;2022-08-30T19:01:03;5.37;;;2.65;;
58756;SDS011;44527;47.460;19.016;2022-08-30T19:04:06;5.65;;;2.80;;
58756;SDS011;44527;47.460;19.016;2022-08-30T19:07:09;6.50;;;2.87;;
58756;SDS011;44527;47.460;19.016;2022-08-30T19:10:16;12.23;;;3.12;;
58756;SDS011;44527;47.460;19.016;2022-08-30T19:13:22;4.15;;;2.95;;
58756;SDS011;44527;47.460;19.016;2022-08-30T19:16:24;5.75;;;2.90;;
58756;SDS011;44527;47.460;19.016;2022-08-30T19:19:27;5.47;;;2.85;;
58756;SDS011;44527;47.460;19.016;2022-08-30T19:22:29;8.45;;;2.67;;
58756;SDS011;44527;47.460;19.016;2022-08-30T19:25:52;5.87;;;2.95;;
58756;SDS011;44527;47.460;19.016;2022-08-30T19:28:56;6.87;;;2.83;;
58756;SDS011;44527;47.460;19.016;2022-08-30T19:31:58;6.00;;;2.90;;
58756;SDS011;44527;47.460;19.016;2022-08-30T19:35:00;6.05;;;2.65;;
58756;SDS011;44527;47.460;19.016;2022-08-30T19:38:03;6.65;;;2.92;;